Terminal Aerodrome Forecast
Issued by NWS

Home | Current Version | Previous Version | Text Only | Print | Product List | Glossary On
Versions: 1 2 3 4 5 6 7 8 9 10 11 12 13 14
000
FTUS42 KMLB 222329
TAFTIX
TAF
KTIX 222329Z 2300/2324 07010KT P6SM VCSH SCT020 BKN060 BKN250
     FM231400 07011KT P6SM VCSH SCT030 SCT150 SCT250
     FM231700 06013G20KT P6SM VCTS SCT030CB BKN060 BKN250
      AMD NOT SKED 2301/2311=

USA.gov is the U.S. government's official web portal to all federal, state and local government web resources and services.